KDVN/DVN METAR and TAF weather

Enter ICAO airport designator
Station Type Date Time Source
KDVN METAR 2020/09/22 23:52 UTC NOAA

KDVN 222352Z AUTO 21004KT 10SM CLR 21/12 A3010 RMK AO2 SLP188 T02110122 10261 20211 55003


Station Type Date Time Source
KDVN Decoded METAR 2020/09/22 23:52 UTC NOAA

DAVENPORT MUNICIPAL AIRPORT, IA, United States (KDVN) 41-37N 90-35W 228M
Sep 22, 2020 - 07:52 PM EDT / 2020.09.22 2352 UTC
Wind: from the SSW (210 degrees) at 5 MPH (4 KT):0
Visibility: 10 mile(s):0
Sky conditions: clear
Temperature: 70.0 F (21.1 C)
Dew Point: 54.0 F (12.2 C)
Relative Humidity: 56%
Pressure (altimeter): 30.1 in. Hg (1019 hPa)
Pressure tendency: 0.01 inches (0.3 hPa) lower than three hours ago
ob: KDVN 222352Z AUTO 21004KT 10SM CLR 21/12 A3010 RMK AO2 SLP188 T02110122 10261 20211 55003
cycle: 0

Station Type Date Time Source
KDVN TAF UTC NOAA

Error!

Example: see airport list